Terminal Aerodrome Forecast
Issued by NWS

Current Version | Previous Version | Text Only | Print | Product List | Glossary On
Versions: 1 2 3 4 5 6 7 8 9 10 11 12 13 14 15
000
FTUS42 KGSP 020528
TAFGMU
TAF
KGMU 020528Z 0206/0306 26006KT P6SM SCT120 OVC250
      TEMPO 0206/0210 -SHRA OVC120
     FM021400 23009KT P6SM BKN120
     FM021800 24012G21KT P6SM BKN080 PROB30 0218/0222 4SM TSRA
      BKN040CB
     FM030400 23009KT P6SM BKN070=

USA.gov is the U.S. government's official web portal to all federal, state and local government web resources and services.